Time;durP1;ratioP1;P1;durP2;ratioP2;P2;SDS_P1;SDS_P2;PMS_P1;PMS_P2;Temp;Humidity;BMP_temperature;BMP_pressure;BME280_temperature;BME280_humidity;BME280_pressure;Samples;Min_cycle;Max_cycle;Signal;HPM_P1;HPM_P2
2022/06/09 00:01:44;;;;;;;29.88;15.88;;;15.40;99.90;;;;;;5083994;28;20504;-47
2022/06/09 00:04:17;;;;;;;30.85;14.38;;;15.40;99.90;;;;;;5076371;28;20067;-47
2022/06/09 00:06:51;;;;;;;28.42;14.38;;;15.40;99.90;;;;;;5075326;28;20082;-47
2022/06/09 00:09:19;;;;;;;33.15;12.90;;;15.30;99.90;;;;;;5087589;28;20075;-46
2022/06/09 00:11:48;;;;;;;23.50;12.20;;;15.30;99.90;;;;;;5088274;28;20382;-46
2022/06/09 00:14:15;;;;;;;24.45;12.50;;;15.20;99.90;;;;;;5076518;28;20042;-47
2022/06/09 00:16:41;;;;;;;26.83;12.63;;;15.30;99.90;;;;;;5082701;28;20076;-47
2022/06/09 00:19:07;;;;;;;22.77;13.07;;;15.30;99.90;;;;;;5078526;28;20044;-47
2022/06/09 00:21:33;;;;;;;;;;;15.20;99.90;;;;;;5092377;28;20032;-46
2022/06/09 00:23:59;;;;;;;29.15;12.30;;;15.20;99.90;;;;;;5090960;28;19916;-46
2022/06/09 00:26:25;;;;;;;24.67;12.00;;;15.20;99.90;;;;;;5086852;28;20036;-45
2022/06/09 00:28:50;;;;;;;22.98;11.95;;;15.20;99.90;;;;;;5079613;28;20397;-46
2022/06/09 00:31:16;;;;;;;20.15;12.73;;;15.10;99.90;;;;;;5080662;28;20044;-47
2022/06/09 00:33:41;;;;;;;26.80;13.20;;;15.10;99.90;;;;;;5085690;28;20346;-47
2022/06/09 00:36:07;;;;;;;26.92;12.35;;;15.10;99.90;;;;;;5088173;28;20538;-46
2022/06/09 00:38:33;;;;;;;25.52;12.07;;;15.10;99.90;;;;;;5090787;28;20526;-46
2022/06/09 00:41:00;;;;;;;23.90;12.88;;;15.00;99.90;;;;;;5076689;28;20451;-47
2022/06/09 00:43:30;;;;;;;24.95;13.45;;;15.00;99.90;;;;;;5082968;28;20067;-46
2022/06/09 00:45:55;;;;;;;26.92;12.15;;;15.00;99.90;;;;;;5076047;28;20051;-47
2022/06/09 00:48:43;;;;;;;21.92;12.48;;;15.00;99.90;;;;;;5078529;28;20041;-47
2022/06/09 00:51:11;;;;;;;;;;;15.00;99.90;;;;;;5083508;28;20058;-46
2022/06/09 00:53:40;;;;;;;18.95;10.15;;;15.00;99.90;;;;;;5081427;28;19916;-47
2022/06/09 00:56:08;;;;;;;19.10;9.88;;;14.90;99.90;;;;;;5085342;28;20033;-46
2022/06/09 00:58:37;;;;;;;20.98;11.20;;;14.90;99.90;;;;;;5079413;28;20032;-46
2022/06/09 01:01:08;;;;;;;20.63;10.73;;;14.90;99.90;;;;;;5075090;28;20448;-45
2022/06/09 01:03:42;;;;;;;21.85;10.13;;;14.90;99.90;;;;;;5084751;28;20444;-46
2022/06/09 01:06:13;;;;;;;24.23;9.93;;;14.80;99.90;;;;;;5078250;28;20063;-47
2022/06/09 01:08:51;;;;;;;24.73;10.05;;;14.80;99.90;;;;;;5084230;28;20458;-46
2022/06/09 01:11:17;;;;;;;19.65;9.02;;;14.80;99.90;;;;;;5082280;28;20466;-46
2022/06/09 01:13:43;;;;;;;16.35;9.38;;;14.80;99.90;;;;;;5081237;28;20071;-46
2022/06/09 01:16:27;;;;;;;18.70;8.90;;;14.70;99.90;;;;;;5089113;28;20040;-47
2022/06/09 01:18:59;;;;;;;27.25;9.50;;;14.70;99.90;;;;;;5072952;28;20391;-48
2022/06/09 01:21:42;;;;;;;24.05;9.77;;;14.70;99.90;;;;;;5086851;28;20077;-46
2022/06/09 01:24:56;;;;;;;25.55;9.85;;;14.70;99.90;;;;;;5090962;28;20067;-46
2022/06/09 01:27:44;;;;;;;21.50;8.85;;;14.70;99.90;;;;;;5048249;28;20383;-46
2022/06/09 01:30:22;;;;;;;18.77;9.75;;;14.70;99.90;;;;;;5048074;28;20414;-46
2022/06/09 01:33:01;;;;;;;18.90;9.07;;;14.60;99.90;;;;;;5047610;28;20124;-47
2022/06/09 01:35:40;;;;;;;23.77;10.38;;;14.60;99.90;;;;;;5048990;28;20049;-48
2022/06/09 01:38:06;;;;;;;24.10;9.50;;;14.60;99.90;;;;;;5049044;28;20033;-48
2022/06/09 01:40:32;;;;;;;20.08;9.68;;;14.60;99.90;;;;;;5047245;28;20036;-48
2022/06/09 01:42:59;;;;;;;26.05;10.10;;;14.60;99.90;;;;;;5047375;28;20048;-47
2022/06/09 01:46:03;;;;;;;23.75;9.23;;;14.60;99.90;;;;;;5037645;28;20562;-47
2022/06/09 01:48:29;;;;;;;23.05;9.27;;;14.50;99.90;;;;;;5028546;28;20119;-47
2022/06/09 01:51:09;;;;;;;28.90;10.20;;;14.50;99.90;;;;;;5030682;28;20137;-47
2022/06/09 01:53:40;;;;;;;20.00;9.57;;;14.50;99.90;;;;;;5041760;28;20068;-47
2022/06/09 01:56:35;;;;;;;20.27;8.38;;;14.50;99.90;;;;;;5030600;28;20394;-46
2022/06/09 01:59:09;;;;;;;19.30;9.35;;;14.50;99.90;;;;;;5038329;28;20048;-47
2022/06/09 02:01:55;;;;;;;24.65;10.30;;;14.40;99.90;;;;;;5062377;28;20060;-45
2022/06/09 02:04:44;;;;;;;20.05;8.95;;;14.40;99.90;;;;;;5084257;28;20476;-48
2022/06/09 02:07:11;;;;;;;26.98;9.13;;;14.30;99.90;;;;;;5070457;28;20082;-46
2022/06/09 02:09:37;;;;;;;24.08;8.27;;;14.30;99.90;;;;;;5077709;28;20048;-46
2022/06/09 02:12:07;;;;;;;17.20;8.13;;;14.30;99.90;;;;;;5071390;28;20575;-45
2022/06/09 02:14:34;;;;;;;20.90;9.25;;;14.30;99.90;;;;;;5083876;28;20029;-45
2022/06/09 02:17:03;;;;;;;22.63;8.98;;;14.30;99.90;;;;;;5079663;28;20047;-46
2022/06/09 02:19:28;;;;;;;25.15;9.63;;;14.20;99.90;;;;;;5082035;28;20040;-45
2022/06/09 02:21:54;;;;;;;17.95;8.45;;;14.20;99.90;;;;;;5080138;28;20048;-46
2022/06/09 02:24:20;;;;;;;23.40;8.00;;;14.20;99.90;;;;;;5084635;28;20254;-45
2022/06/09 02:26:45;;;;;;;19.90;7.90;;;14.20;99.90;;;;;;5075719;28;20032;-46
2022/06/09 02:29:11;;;;;;;22.50;10.05;;;14.20;99.90;;;;;;5084941;28;20037;-46
2022/06/09 02:31:37;;;;;;;21.38;8.98;;;14.20;99.90;;;;;;5086572;28;20131;-46
2022/06/09 02:34:03;;;;;;;23.65;8.48;;;14.10;99.90;;;;;;5076166;28;20112;-47
2022/06/09 02:36:28;;;;;;;25.25;9.70;;;14.10;99.90;;;;;;5086646;28;20161;-46
2022/06/09 02:38:54;;;;;;;22.57;9.57;;;14.20;99.90;;;;;;5071805;28;20032;-47
2022/06/09 02:41:20;;;;;;;22.50;10.03;;;14.10;99.90;;;;;;5088797;28;20270;-47
2022/06/09 02:43:45;;;;;;;27.30;10.65;;;14.10;99.90;;;;;;5085679;28;20439;-47
2022/06/09 02:46:11;;;;;;;23.27;9.63;;;14.10;99.90;;;;;;5078649;28;20141;-45
2022/06/09 02:48:37;;;;;;;23.63;10.43;;;14.10;99.90;;;;;;5080205;28;20467;-47
2022/06/09 02:51:23;;;;;;;26.30;10.05;;;14.10;99.90;;;;;;5082843;28;20040;-46
2022/06/09 02:53:49;;;;;;;33.22;10.05;;;14.00;99.90;;;;;;5082743;28;20055;-47
2022/06/09 02:56:15;;;;;;;25.58;10.50;;;14.00;99.90;;;;;;5075715;28;20029;-45
2022/06/09 02:58:41;;;;;;;22.15;10.45;;;14.00;99.90;;;;;;5075307;28;20178;-45
2022/06/09 03:01:07;;;;;;;24.70;10.13;;;14.00;99.90;;;;;;5084159;28;20063;-47
2022/06/09 03:03:33;;;;;;;33.30;10.18;;;14.00;99.90;;;;;;5081070;28;20032;-45
2022/06/09 03:05:58;;;;;;;33.53;9.82;;;14.00;99.90;;;;;;5080950;28;20178;-46
2022/06/09 03:08:26;;;;;;;23.98;9.50;;;13.90;99.90;;;;;;5088725;28;20532;-46
2022/06/09 03:10:52;;;;;;;29.48;9.82;;;13.90;99.90;;;;;;5077541;28;20036;-45
2022/06/09 03:13:17;;;;;;;20.45;9.82;;;13.90;99.90;;;;;;5084684;28;20520;-47
2022/06/09 03:15:47;;;;;;;26.55;8.93;;;13.90;99.90;;;;;;5076647;28;20063;-47
2022/06/09 03:18:13;;;;;;;21.45;9.20;;;13.90;99.90;;;;;;5077946;28;20032;-47
2022/06/09 03:20:39;;;;;;;;;;;13.90;99.90;;;;;;5071646;28;21460;-47
2022/06/09 03:23:05;;;;;;;21.67;9.13;;;13.90;99.90;;;;;;5078197;28;20015;-45
2022/06/09 03:25:30;;;;;;;19.10;8.38;;;13.90;99.90;;;;;;5076651;28;20037;-46
2022/06/09 03:27:56;;;;;;;27.80;8.50;;;13.90;99.90;;;;;;5080713;28;20040;-47
2022/06/09 03:30:21;;;;;;;19.90;8.00;;;13.90;99.90;;;;;;5069107;28;20446;-46
2022/06/09 03:32:47;;;;;;;23.70;8.77;;;13.90;99.90;;;;;;5086592;28;20040;-45
2022/06/09 03:35:13;;;;;;;25.38;7.85;;;13.80;99.90;;;;;;5093587;28;20040;-45
2022/06/09 03:37:39;;;;;;;25.42;8.35;;;13.80;99.90;;;;;;5093761;28;20111;-47
2022/06/09 03:40:06;;;;;;;22.35;8.20;;;13.90;99.90;;;;;;5092561;28;20089;-47
2022/06/09 03:42:32;;;;;;;24.80;8.98;;;13.80;99.90;;;;;;5091271;28;20082;-46
2022/06/09 03:44:57;;;;;;;26.77;8.27;;;13.80;99.90;;;;;;5081305;28;20068;-46
2022/06/09 03:47:24;;;;;;;20.77;8.18;;;13.80;99.90;;;;;;5073275;28;20485;-46
2022/06/09 03:49:50;;;;;;;30.45;9.85;;;13.80;99.90;;;;;;5073336;28;20378;-46
2022/06/09 03:52:16;;;;;;;18.02;8.20;;;13.80;99.90;;;;;;5073384;28;20043;-45
2022/06/09 03:54:42;;;;;;;21.48;7.43;;;13.90;99.90;;;;;;5072454;28;20062;-46
2022/06/09 03:57:07;;;;;;;25.92;9.07;;;13.90;99.90;;;;;;5072824;28;20043;-47
2022/06/09 03:59:33;;;;;;;21.80;7.30;;;13.90;99.90;;;;;;5084464;28;20046;-46
2022/06/09 04:01:58;;;;;;;27.38;9.02;;;13.90;99.90;;;;;;5089679;28;20289;-46
2022/06/09 04:04:24;;;;;;;29.17;9.57;;;13.90;99.90;;;;;;5091155;28;20359;-45
2022/06/09 04:06:49;;;;;;;24.20;8.32;;;13.90;99.90;;;;;;5077316;28;20144;-47
2022/06/09 04:09:16;;;;;;;21.40;7.82;;;13.90;99.90;;;;;;5091433;28;20032;-47
2022/06/09 04:11:41;;;;;;;;;;;13.90;99.90;;;;;;5080475;28;20032;-47
2022/06/09 04:14:07;;;;;;;28.15;8.40;;;13.90;99.90;;;;;;5081810;28;19969;-46
2022/06/09 04:16:37;;;;;;;20.38;8.50;;;13.90;99.90;;;;;;5088619;28;20063;-46
2022/06/09 04:19:09;;;;;;;20.20;6.97;;;14.00;99.90;;;;;;5076779;28;20047;-46
2022/06/09 04:21:36;;;;;;;13.82;5.95;;;13.90;99.90;;;;;;5075978;28;20044;-46
2022/06/09 04:24:03;;;;;;;20.73;6.65;;;14.00;99.90;;;;;;5085148;28;20047;-48
2022/06/09 04:26:32;;;;;;;22.48;8.00;;;14.00;99.90;;;;;;5087040;28;20074;-45
2022/06/09 04:28:57;;;;;;;16.73;6.93;;;14.00;99.90;;;;;;5075678;28;20188;-45
2022/06/09 04:31:23;;;;;;;25.42;8.25;;;14.00;99.90;;;;;;5078500;28;20123;-45
2022/06/09 04:33:49;;;;;;;18.83;7.35;;;14.10;99.90;;;;;;5070496;28;20047;-46
2022/06/09 04:36:15;;;;;;;18.42;7.25;;;14.10;99.90;;;;;;5080035;28;20033;-46
2022/06/09 04:38:40;;;;;;;24.30;9.13;;;14.10;99.90;;;;;;5081511;28;20037;-45
2022/06/09 04:41:09;;;;;;;20.38;6.55;;;14.10;99.90;;;;;;5074159;28;20101;-46
2022/06/09 04:43:40;;;;;;;19.33;7.97;;;14.20;99.90;;;;;;5071954;28;20397;-45
2022/06/09 04:46:06;;;;;;;23.02;7.22;;;14.20;99.90;;;;;;5084949;28;20152;-46
2022/06/09 04:48:33;;;;;;;29.73;7.40;;;14.30;99.90;;;;;;5080385;28;20434;-47
2022/06/09 04:50:59;;;;;;;18.27;6.85;;;14.30;99.90;;;;;;5084746;28;20040;-46
2022/06/09 04:53:24;;;;;;;24.15;7.75;;;14.30;99.90;;;;;;5073371;28;20043;-46
2022/06/09 04:55:50;;;;;;;21.95;7.95;;;14.30;99.90;;;;;;5074034;28;20036;-46
2022/06/09 04:58:16;;;;;;;23.88;7.35;;;14.40;99.90;;;;;;5076458;28;20041;-46
2022/06/09 05:00:42;;;;;;;25.13;7.20;;;14.40;99.90;;;;;;5079046;28;20383;-45
2022/06/09 05:03:11;;;;;;;21.05;5.65;;;14.40;99.90;;;;;;5088496;28;20047;-47
2022/06/09 05:05:39;;;;;;;20.52;7.63;;;14.50;99.90;;;;;;5087628;28;20410;-46
2022/06/09 05:08:05;;;;;;;17.48;7.72;;;14.50;99.90;;;;;;5087261;28;20037;-45
2022/06/09 05:10:31;;;;;;;23.50;6.88;;;14.50;99.90;;;;;;5074339;28;20103;-46
2022/06/09 05:12:57;;;;;;;17.80;6.93;;;14.60;99.90;;;;;;5079859;28;20489;-47
2022/06/09 05:15:24;;;;;;;21.15;6.90;;;14.60;99.90;;;;;;5071898;28;20029;-46
2022/06/09 05:17:51;;;;;;;17.50;7.40;;;14.60;99.90;;;;;;5071152;28;20036;-47
2022/06/09 05:20:20;;;;;;;10.60;5.32;;;14.60;99.90;;;;;;5071544;28;20117;-47
2022/06/09 05:22:46;;;;;;;16.02;6.80;;;14.60;99.90;;;;;;5070198;28;20044;-46
2022/06/09 05:25:13;;;;;;;21.30;7.07;;;14.60;99.90;;;;;;5076596;28;20512;-45
2022/06/09 05:27:38;;;;;;;13.63;6.15;;;14.60;99.90;;;;;;5076646;28;20033;-46
2022/06/09 05:30:07;;;;;;;12.32;5.80;;;14.60;99.90;;;;;;5079217;28;20532;-47
2022/06/09 05:32:33;;;;;;;20.98;5.95;;;14.60;99.90;;;;;;5090653;28;20036;-46
2022/06/09 05:34:58;;;;;;;20.55;8.38;;;14.70;99.90;;;;;;5089164;28;20036;-46
2022/06/09 05:37:24;;;;;;;23.40;8.30;;;14.70;99.90;;;;;;5089435;28;20039;-46
2022/06/09 05:45:19;;;;;;;19.50;7.03;;;14.80;99.90;;;;;;5078765;28;20044;-45
2022/06/09 05:47:45;;;;;;;18.70;6.25;;;14.80;99.90;;;;;;5074341;28;20045;-45
2022/06/09 05:50:11;;;;;;;21.65;6.90;;;14.80;99.90;;;;;;5091086;28;20036;-45
2022/06/09 05:52:37;;;;;;;11.98;5.72;;;14.80;99.90;;;;;;5085526;28;20040;-46
2022/06/09 05:55:05;;;;;;;19.73;7.35;;;14.90;99.90;;;;;;5071093;28;20044;-46
2022/06/09 05:57:30;;;;;;;13.70;6.65;;;14.90;99.90;;;;;;5073593;28;20040;-46
2022/06/09 05:59:56;;;;;;;20.17;7.72;;;14.90;99.90;;;;;;5087910;28;20070;-44
2022/06/09 06:02:25;;;;;;;13.57;6.85;;;14.90;99.90;;;;;;5088125;28;20513;-47
2022/06/09 06:04:52;;;;;;;16.38;7.90;;;14.90;99.90;;;;;;5074829;28;20095;-47
2022/06/09 06:07:18;;;;;;;20.02;7.72;;;15.00;99.90;;;;;;5079066;28;20043;-46
2022/06/09 06:09:43;;;;;;;15.38;7.32;;;15.00;99.90;;;;;;5081164;28;20040;-47
2022/06/09 06:12:11;;;;;;;16.25;7.00;;;15.00;99.90;;;;;;5072134;28;20063;-46
2022/06/09 06:14:36;;;;;;;19.27;7.63;;;15.00;99.90;;;;;;5069779;28;20452;-47
2022/06/09 06:17:03;;;;;;;16.20;8.50;;;15.10;99.90;;;;;;5086099;28;20235;-46
2022/06/09 06:19:28;;;;;;;;;;;15.10;99.90;;;;;;5074150;28;20082;-47
2022/06/09 06:21:54;;;;;;;14.43;7.25;;;15.10;99.90;;;;;;5068363;28;19916;-46
2022/06/09 06:24:23;;;;;;;13.52;7.05;;;15.10;99.90;;;;;;5069814;28;20509;-46
2022/06/09 06:26:49;;;;;;;12.85;7.70;;;15.20;99.90;;;;;;5071578;28;20044;-46
2022/06/09 06:29:22;;;;;;;12.77;8.00;;;15.20;99.90;;;;;;5074882;28;20040;-45
2022/06/09 06:31:48;;;;;;;13.38;8.77;;;15.30;99.90;;;;;;5088510;28;20115;-45
2022/06/09 06:34:14;;;;;;;9.35;8.20;;;15.30;99.90;;;;;;5089752;28;20115;-47
2022/06/09 06:36:40;;;;;;;14.88;8.65;;;15.40;99.90;;;;;;5088767;28;20059;-47
2022/06/09 06:39:05;;;;;;;11.98;8.95;;;15.40;99.90;;;;;;5090413;28;20039;-45
2022/06/09 06:41:31;;;;;;;9.35;8.30;;;15.50;99.90;;;;;;5089949;28;20036;-46
2022/06/09 06:43:57;;;;;;;11.15;8.95;;;15.50;99.90;;;;;;5088910;28;20055;-47
2022/06/09 06:46:23;;;;;;;10.43;8.65;;;15.60;99.90;;;;;;5090050;28;20048;-47
2022/06/09 06:48:49;;;;;;;14.20;8.90;;;15.70;99.90;;;;;;5088601;28;20047;-47
2022/06/09 06:51:15;;;;;;;10.63;8.82;;;15.80;99.90;;;;;;5089850;28;20036;-46
2022/06/09 06:53:41;;;;;;;16.73;9.00;;;15.90;99.90;;;;;;5089029;28;20435;-46
2022/06/09 06:56:08;;;;;;;9.73;7.70;;;15.90;99.90;;;;;;5089950;28;20048;-47
2022/06/09 06:58:34;;;;;;;11.88;8.98;;;16.00;99.90;;;;;;5082656;28;20036;-46
2022/06/09 07:01:01;;;;;;;13.40;9.30;;;15.90;99.90;;;;;;5070537;28;20097;-46
2022/06/09 07:03:29;;;;;;;11.25;8.82;;;16.00;99.90;;;;;;5083396;28;20052;-46
2022/06/09 07:05:55;;;;;;;10.02;8.38;;;15.90;99.90;;;;;;5089832;28;20052;-47
2022/06/09 07:08:23;;;;;;;10.90;9.13;;;15.90;99.90;;;;;;5088511;28;20039;-47
2022/06/09 07:10:49;;;;;;;9.40;8.10;;;16.00;99.90;;;;;;5073881;28;20120;-46
2022/06/09 07:13:14;;;;;;;8.50;7.47;;;16.00;99.90;;;;;;5086516;28;20115;-46
2022/06/09 07:15:40;;;;;;;10.50;9.48;;;16.10;99.90;;;;;;5094148;28;20040;-46
2022/06/09 07:18:06;;;;;;;12.13;8.70;;;16.10;99.90;;;;;;5090048;28;20537;-46
2022/06/09 07:20:31;;;;;;;10.27;8.45;;;16.20;99.90;;;;;;5076914;28;20040;-47
2022/06/09 07:22:57;;;;;;;7.53;6.65;;;16.30;99.90;;;;;;5084519;28;20131;-47
2022/06/09 07:25:25;;;;;;;7.43;6.63;;;16.40;99.90;;;;;;5078281;28;20162;-47
2022/06/09 07:27:52;;;;;;;10.93;8.00;;;16.40;99.90;;;;;;5084988;28;20409;-47
2022/06/09 07:30:20;;;;;;;11.35;6.97;;;16.50;99.90;;;;;;5087877;28;20043;-48
2022/06/09 07:32:46;;;;;;;8.45;6.50;;;16.60;99.90;;;;;;5081913;28;20036;-47
2022/06/09 07:35:15;;;;;;;7.95;7.20;;;16.70;99.90;;;;;;5084408;28;20039;-46
2022/06/09 07:37:41;;;;;;;7.38;6.55;;;16.70;99.90;;;;;;5084732;28;20736;-46
2022/06/09 07:40:07;;;;;;;9.00;6.75;;;16.70;99.90;;;;;;5084072;28;20119;-46
2022/06/09 07:42:33;;;;;;;10.35;6.53;;;16.80;99.90;;;;;;5089646;28;20039;-45
2022/06/09 07:44:59;;;;;;;8.35;6.65;;;16.90;99.90;;;;;;5091655;28;20039;-47
2022/06/09 07:47:25;;;;;;;6.80;6.20;;;16.90;99.90;;;;;;5082037;28;20040;-46
2022/06/09 07:49:51;;;;;;;7.68;6.00;;;16.90;99.90;;;;;;5093197;28;20047;-47
2022/06/09 07:52:18;;;;;;;;;;;16.90;99.90;;;;;;5089173;28;20031;-46
2022/06/09 07:54:44;;;;;;;10.52;5.55;;;17.00;99.90;;;;;;5090195;28;19923;-47
2022/06/09 07:57:11;;;;;;;8.00;4.82;;;17.10;99.90;;;;;;5079903;28;20452;-46
2022/06/09 07:59:37;;;;;;;7.30;5.28;;;17.20;99.90;;;;;;5077223;28;20505;-47
2022/06/09 08:02:03;;;;;;;7.60;3.20;;;17.30;99.90;;;;;;5080883;28;20036;-46
2022/06/09 08:04:29;;;;;;;5.53;3.33;;;17.40;99.90;;;;;;5078930;28;20044;-48
2022/06/09 08:06:55;;;;;;;4.20;3.15;;;17.40;99.90;;;;;;5080454;28;20043;-47
2022/06/09 08:09:20;;;;;;;4.75;3.08;;;17.50;99.90;;;;;;5079223;28;20036;-47
2022/06/09 08:11:47;;;;;;;7.55;3.05;;;17.50;99.90;;;;;;5078317;28;20110;-47
2022/06/09 08:14:13;;;;;;;5.38;2.20;;;17.60;99.90;;;;;;5080099;28;20064;-46
2022/06/09 08:16:39;;;;;;;5.28;2.50;;;17.70;99.90;;;;;;5081290;28;20077;-48
2022/06/09 08:19:05;;;;;;;5.35;1.45;;;17.80;99.90;;;;;;5082906;28;20032;-46
2022/06/09 08:21:31;;;;;;;;;;;17.90;99.90;;;;;;5077149;28;20075;-46
2022/06/09 08:23:57;;;;;;;5.43;1.30;;;18.00;99.90;;;;;;5082745;28;19964;-46
2022/06/09 08:26:23;;;;;;;2.35;1.10;;;18.10;99.90;;;;;;5088892;28;20050;-46
2022/06/09 08:28:49;;;;;;;4.00;1.73;;;18.10;99.90;;;;;;5078935;28;20520;-47
2022/06/09 08:31:14;;;;;;;5.75;1.92;;;18.10;99.90;;;;;;5074602;28;20037;-47
2022/06/09 08:33:40;;;;;;;3.88;1.35;;;18.20;99.90;;;;;;5090686;28;20040;-47
2022/06/09 08:36:06;;;;;;;5.13;1.17;;;18.30;99.90;;;;;;5091752;28;20036;-48
2022/06/09 08:38:31;;;;;;;3.78;0.80;;;18.30;99.90;;;;;;5086631;28;20122;-47
2022/06/09 08:41:33;;;;;;;7.22;0.98;;;18.40;99.90;;;;;;5092058;28;20071;-47
2022/06/09 08:44:29;;;;;;;4.32;0.50;;;18.50;99.90;;;;;;5040714;28;20040;-47
2022/06/09 08:47:03;;;;;;;5.53;1.10;;;18.50;99.90;;;;;;5049260;28;20469;-48
2022/06/09 08:49:44;;;;;;;4.82;0.70;;;18.50;99.90;;;;;;5042127;28;20111;-46
2022/06/09 08:52:34;;;;;;;3.30;0.90;;;18.40;99.90;;;;;;5044301;28;20076;-47
2022/06/09 08:55:12;;;;;;;4.65;0.73;;;18.30;99.90;;;;;;5039863;28;20049;-47
2022/06/09 08:57:38;;;;;;;8.52;0.90;;;18.40;99.90;;;;;;5029418;28;20153;-48
2022/06/09 09:00:05;;;;;;;2.22;1.08;;;18.50;99.90;;;;;;5048132;28;20068;-48
2022/06/09 09:02:38;;;;;;;4.60;0.40;;;18.60;99.90;;;;;;5048076;28;20045;-48
2022/06/09 09:05:37;;;;;;;4.43;0.43;;;18.60;99.90;;;;;;5016350;28;20060;-46
2022/06/09 09:08:04;;;;;;;5.60;0.93;;;18.80;99.90;;;;;;5039677;28;20068;-49
2022/06/09 09:11:13;;;;;;;8.45;1.08;;;18.90;99.90;;;;;;5035533;28;20037;-48
2022/06/09 09:14:05;;;;;;;5.18;1.10;;;18.90;99.90;;;;;;4965844;28;20095;-50
2022/06/09 09:17:09;;;;;;;1.40;0.60;;;19.00;99.90;;;;;;5028072;28;20092;-48
2022/06/09 09:19:54;;;;;;;4.88;0.50;;;19.10;99.90;;;;;;5038955;28;20056;-48
2022/06/09 09:22:39;;;;;;;3.28;0.45;;;19.00;99.90;;;;;;5074224;28;20110;-47
2022/06/09 09:25:10;;;;;;;2.63;0.30;;;19.00;99.90;;;;;;5070778;28;20041;-47
2022/06/09 09:27:53;;;;;;;3.08;0.30;;;19.00;99.90;;;;;;5083020;28;20044;-47
2022/06/09 09:30:19;;;;;;;4.15;0.70;;;19.10;99.90;;;;;;5080711;28;20032;-47
2022/06/09 09:32:51;;;;;;;2.53;0.35;;;19.20;99.90;;;;;;5081472;28;20108;-47
2022/06/09 09:35:22;;;;;;;3.53;0.50;;;19.20;99.90;;;;;;5091290;28;20040;-47
2022/06/09 09:37:54;;;;;;;1.65;0.40;;;19.30;99.90;;;;;;5089277;28;20535;-47
2022/06/09 09:40:23;;;;;;;7.25;0.40;;;19.30;99.90;;;;;;5076907;28;20040;-48
2022/06/09 09:42:52;;;;;;;1.75;0.68;;;19.30;99.90;;;;;;5070247;28;20497;-46
2022/06/09 09:45:39;;;;;;;3.80;0.30;;;19.30;99.90;;;;;;5070586;28;20075;-48
2022/06/09 09:48:17;;;;;;;1.40;0.25;;;19.30;99.90;;;;;;5070603;28;20618;-48
2022/06/09 09:51:05;;;;;;;2.78;0.50;;;19.40;99.90;;;;;;5081114;28;20040;-45
2022/06/09 09:53:38;;;;;;;2.47;0.40;;;19.40;99.90;;;;;;5081903;28;20069;-47
2022/06/09 09:56:16;;;;;;;3.58;0.40;;;19.50;99.90;;;;;;5089560;28;20443;-46
2022/06/09 09:58:47;;;;;;;5.78;0.30;;;19.50;99.90;;;;;;5086202;28;20036;-47
2022/06/09 10:01:22;;;;;;;4.03;0.20;;;19.50;99.90;;;;;;5080860;28;20408;-47
2022/06/09 10:10:09;;;;;;;4.50;0.30;;;19.70;99.90;;;;;;5073665;28;20489;-43
2022/06/09 10:12:35;;;;;;;1.67;0.52;;;19.70;99.90;;;;;;5070847;28;20052;-47
2022/06/09 10:15:09;;;;;;;2.03;0.22;;;19.80;99.90;;;;;;5069984;28;20078;-48
2022/06/09 10:18:01;;;;;;;2.33;0.30;;;19.80;99.90;;;;;;5069214;28;20056;-47
2022/06/09 10:20:35;;;;;;;2.75;0.20;;;19.80;99.90;;;;;;5072971;28;20173;-47
2022/06/09 10:23:09;;;;;;;1.88;0.30;;;19.90;99.90;;;;;;5075649;28;20041;-48
2022/06/09 10:25:52;;;;;;;4.70;0.47;;;19.90;99.90;;;;;;5079041;28;20071;-47
2022/06/09 10:28:44;;;;;;;4.25;0.20;;;19.90;99.90;;;;;;5079370;28;20032;-49
2022/06/09 10:31:35;;;;;;;2.22;0.50;;;19.90;99.90;;;;;;5080918;28;20040;-48
2022/06/09 10:34:12;;;;;;;3.95;0.30;;;20.00;99.90;;;;;;5070055;28;20410;-49
2022/06/09 10:36:47;;;;;;;;;;;20.00;99.90;;;;;;5089580;28;20446;-48
2022/06/09 10:39:37;;;;;;;2.13;0.25;;;20.00;99.90;;;;;;5086976;28;19915;-48
2022/06/09 10:42:24;;;;;;;2.33;0.20;;;20.00;99.90;;;;;;5078333;28;20043;-48
2022/06/09 10:45:12;;;;;;;4.32;0.38;;;20.00;99.90;;;;;;5071260;28;20048;-47
2022/06/09 10:56:43;;;;;;;1.52;0.20;;;20.30;99.90;;;;;;5069510;28;20040;-48
2022/06/09 10:59:38;;;;;;;2.95;0.20;;;20.40;99.90;;;;;;5081216;28;20485;-47
2022/06/09 11:02:13;;;;;;;5.40;0.77;;;20.30;99.90;;;;;;5067932;28;20409;-48
2022/06/09 11:04:39;;;;;;;4.68;0.40;;;20.40;99.90;;;;;;5076085;28;20090;-46
2022/06/09 11:07:41;;;;;;;3.50;0.30;;;20.40;99.90;;;;;;5080273;28;20041;-48
2022/06/09 11:10:28;;;;;;;2.70;0.32;;;20.50;99.90;;;;;;5084372;28;20219;-48
2022/06/09 11:13:24;;;;;;;4.55;0.35;;;20.50;99.90;;;;;;5078568;28;20036;-48
2022/06/09 11:16:15;;;;;;;3.88;0.20;;;20.50;99.90;;;;;;5083357;28;20496;-49
2022/06/09 11:18:47;;;;;;;2.78;0.22;;;20.40;99.90;;;;;;5072639;28;20044;-46
2022/06/09 11:21:29;;;;;;;4.20;0.47;;;20.40;99.90;;;;;;5077144;28;20135;-47
2022/06/09 11:24:15;;;;;;;3.67;0.10;;;20.50;99.90;;;;;;5089473;28;20055;-47
2022/06/09 11:26:47;;;;;;;5.22;0.30;;;20.60;99.90;;;;;;5088652;28;20051;-48
2022/06/09 11:29:36;;;;;;;32.75;0.95;;;20.70;99.90;;;;;;5085240;28;20048;-48
2022/06/09 11:32:16;;;;;;;44.67;2.33;;;20.80;99.90;;;;;;5070794;28;20068;-48
2022/06/09 11:34:58;;;;;;;5.78;0.88;;;20.80;99.90;;;;;;5069105;28;20147;-48
2022/06/09 11:37:41;;;;;;;3.38;0.30;;;20.90;99.90;;;;;;5081867;28;20401;-48
2022/06/09 11:40:42;;;;;;;5.15;0.43;;;21.00;99.40;;;;;;5079923;28;20044;-48
2022/06/09 11:43:39;;;;;;;1.92;0.30;;;20.90;99.90;;;;;;5075184;28;20044;-48
2022/06/09 11:46:20;;;;;;;3.97;0.20;;;20.90;99.70;;;;;;5045395;28;20080;-47
2022/06/09 11:48:49;;;;;;;4.75;0.47;;;20.90;99.60;;;;;;5045092;28;20429;-48
2022/06/09 11:51:18;;;;;;;2.42;0.20;;;20.90;99.70;;;;;;5041680;28;20065;-48
2022/06/09 11:53:53;;;;;;;2.72;0.20;;;21.00;99.90;;;;;;5042435;28;20075;-48
2022/06/09 11:56:34;;;;;;;1.60;0.10;;;21.10;99.90;;;;;;5050346;28;20548;-49
2022/06/09 11:59:03;;;;;;;1.23;0.20;;;21.20;99.70;;;;;;5049660;28;20041;-48
2022/06/09 12:01:39;;;;;;;4.03;0.30;;;21.20;99.10;;;;;;5030740;28;20064;-48
2022/06/09 12:04:15;;;;;;;9.20;0.20;;;21.30;98.80;;;;;;5029557;28;20041;-49
2022/06/09 12:07:17;;;;;;;5.95;0.30;;;21.40;99.40;;;;;;5050184;28;20124;-47
2022/06/09 12:09:55;;;;;;;5.18;0.52;;;21.40;98.40;;;;;;5045237;28;20046;-48
2022/06/09 12:12:34;;;;;;;2.85;0.45;;;21.30;98.00;;;;;;5030713;28;20117;-48
2022/06/09 12:15:12;;;;;;;3.30;0.45;;;21.30;98.40;;;;;;5029312;28;20045;-48
2022/06/09 12:17:53;;;;;;;6.13;0.68;;;21.20;97.80;;;;;;5039144;28;20707;-48
2022/06/09 12:20:45;;;;;;;2.72;0.15;;;21.20;98.60;;;;;;5035102;28;20040;-48
2022/06/09 12:23:32;;;;;;;4.15;0.30;;;21.10;97.80;;;;;;5041836;28;20076;-47
2022/06/09 12:26:09;;;;;;;2.55;0.68;;;21.10;98.60;;;;;;5049512;28;20041;-47
2022/06/09 12:28:44;;;;;;;6.72;0.50;;;21.20;99.40;;;;;;5049665;28;20045;-48
2022/06/09 12:31:12;;;;;;;4.22;0.20;;;21.30;98.40;;;;;;5057417;28;20041;-47
2022/06/09 12:33:38;;;;;;;2.53;0.30;;;21.30;99.40;;;;;;5068961;28;20048;-48
2022/06/09 12:36:09;;;;;;;2.83;0.50;;;21.30;98.00;;;;;;5048665;28;20090;-48
2022/06/09 12:38:41;;;;;;;2.47;0.28;;;21.40;97.80;;;;;;5043336;28;20442;-46
2022/06/09 12:41:30;;;;;;;5.50;0.50;;;21.40;97.20;;;;;;5057102;28;20053;-46
2022/06/09 12:44:22;;;;;;;3.00;0.50;;;21.40;96.60;;;;;;5059013;28;20496;-46
2022/06/09 12:47:12;;;;;;;5.97;0.47;;;21.40;97.10;;;;;;5042892;28;20049;-48
2022/06/09 12:49:42;;;;;;;3.70;0.45;;;21.50;97.80;;;;;;5030290;28;20136;-48
2022/06/09 12:52:38;;;;;;;3.83;0.50;;;21.50;97.80;;;;;;5043741;28;20055;-48
2022/06/09 12:55:18;;;;;;;3.83;0.30;;;21.50;98.40;;;;;;5048809;28;20040;-49
2022/06/09 12:57:57;;;;;;;1.48;0.30;;;21.50;98.50;;;;;;5048992;28;20073;-48
2022/06/09 13:00:34;;;;;;;3.92;0.38;;;21.50;99.20;;;;;;5066765;28;20051;-48
2022/06/09 13:02:59;;;;;;;5.57;0.30;;;21.50;98.10;;;;;;5085782;28;20040;-48
2022/06/09 13:05:29;;;;;;;;;;;21.50;98.50;;;;;;5071384;28;20089;-48
2022/06/09 13:08:03;;;;;;;3.60;0.30;;;21.40;98.20;;;;;;5088315;28;20330;-46
2022/06/09 13:10:33;;;;;;;2.97;0.57;;;21.50;97.00;;;;;;5079428;28;20048;-48
2022/06/09 13:13:06;;;;;;;4.43;0.30;;;21.50;98.20;;;;;;5072661;28;20036;-48
2022/06/09 13:15:40;;;;;;;6.30;0.40;;;21.60;96.30;;;;;;5071566;28;20064;-47
2022/06/09 13:18:16;;;;;;;5.07;0.40;;;21.60;96.30;;;;;;5071834;28;20055;-47
2022/06/09 13:20:57;;;;;;;2.10;0.45;;;21.60;95.90;;;;;;5072785;28;20434;-47
2022/06/09 13:23:25;;;;;;;4.88;0.68;;;21.60;95.40;;;;;;5075542;28;20032;-47
2022/06/09 13:25:51;;;;;;;4.15;0.50;;;21.50;95.80;;;;;;5077216;28;20040;-48
2022/06/09 13:28:28;;;;;;;;;;;21.50;94.70;;;;;;5091587;28;20123;-47